Main page
METAR-TAF:

METAR-TAF

Airports :

Bergamo, Italy

Orio al Serio International Airport

latitude: 45-40N, longitude: 009-42E, elevation: 238 m

Current weather observation

The report was made 28 minutes ago, at 20:20 UTC
Wind 4 kt from the North
Temperature 21°C
Humidity 60%
Pressure 1016 hPa
Visibility 10 km or more
no clouds below 1500 m and no cumulonimbus

METAR: LIME 232020Z 01004KT CAVOK 21/13 Q1016 NOSIG

Time: 22:48 (20:48 UTC)

Forecast

The report was made 3 hours and 48 minutes ago, at 17:00 UTC
Forecast valid from 23 at 18 UTC to 24 at 18 UTC
Wind 7 kt from the West
Visibility 10 km or more
no clouds below 1500 m and no cumulonimbus

TAF: LIME 231700Z 2318/2418 26007KT CAVOK

Weather observations and forecasts of more than 4000 airports (METAR and TAF reports).

The available stations are represented by yellow and red dots on the map.

Hover mouse over dot to see the name of the station.

Then click to see weather observations and forecasts.

To change the map : click on the green buttons with a black cross to zoom in, on the green button with a dash to zoom out, or on the green arrows for adjacent maps.


METAR-TAF: